UAE9657 FWKI-FAOR
Flight info
| Callsign | UAE9657 |
|---|---|
| Flight time | 1h 57m |
| Altitude | 34000 |
| Route | ESPOP1E ESPOP UM315 USUBI UR409 VMV UP312 GWV UZ11 NESAG UZ7 OKPIT OKPIT1C |
| Aircraft | B77L/H-SDE1E2E3FGHIJ2J3J4J5M1RWXY/LB1D1 |
Departure
| Time | 2026-04-17 02:23 |
|---|---|
| Airport | Kamuzu International Airport (FWKI) |
Arrival
| Time | 2026-04-17 04:20 |
|---|---|
| Airport | O.R. Tambo International Airport (FAOR) |
| Time | Latitude | Longitude | Altitude | Speed | Heading |
|---|---|---|---|---|---|
| 2026-04-17 02:07 | -13.78261 | 33.77727 | 4027 ft | 0 kts | 129° |
| 2026-04-17 02:20 | -13.78262 | 33.77729 | 4035 ft | 2 kts | 129° |
| 2026-04-17 02:20 | -13.78280 | 33.77752 | 4030 ft | 6 kts | 129° |
| 2026-04-17 02:21 | -13.78316 | 33.77776 | 4033 ft | 7 kts | 187° |
| 2026-04-17 02:21 | -13.78361 | 33.77741 | 4033 ft | 9 kts | 218° |
| 2026-04-17 02:21 | -13.78419 | 33.77693 | 4032 ft | 12 kts | 219° |
| 2026-04-17 02:21 | -13.78491 | 33.77631 | 4032 ft | 15 kts | 220° |
| 2026-04-17 02:22 | -13.78544 | 33.77626 | 4033 ft | 10 kts | 141° |
| 2026-04-17 02:22 | -13.78723 | 33.77842 | 4032 ft | 80 kts | 130° |
| 2026-04-17 02:22 | -13.79260 | 33.78496 | 4030 ft | 158 kts | 130° |
| 2026-04-17 02:22 | -13.80096 | 33.79509 | 4222 ft | 199 kts | 129° |
| 2026-04-17 02:23 | -13.80975 | 33.80538 | 5170 ft | 188 kts | 129° |
| 2026-04-17 02:23 | -13.82001 | 33.81373 | 5892 ft | 195 kts | 156° |
| 2026-04-17 02:23 | -13.83359 | 33.81553 | 6593 ft | 202 kts | 182° |
| 2026-04-17 02:23 | -13.84718 | 33.81146 | 7182 ft | 209 kts | 207° |
| 2026-04-17 02:24 | -13.85858 | 33.80119 | 7421 ft | 232 kts | 238° |
| 2026-04-17 02:24 | -13.86443 | 33.78503 | 7580 ft | 253 kts | 254° |
| 2026-04-17 02:24 | -13.86961 | 33.76670 | 7814 ft | 280 kts | 253° |
| 2026-04-17 02:24 | -13.87559 | 33.74715 | 8293 ft | 290 kts | 245° |
| 2026-04-17 02:25 | -13.88771 | 33.73052 | 8882 ft | 293 kts | 222° |
| 2026-04-17 02:25 | -13.90298 | 33.71627 | 9625 ft | 299 kts | 223° |
| 2026-04-17 02:25 | -13.91813 | 33.70160 | 10443 ft | 302 kts | 223° |
| 2026-04-17 02:25 | -13.93377 | 33.68625 | 10830 ft | 323 kts | 224° |
| 2026-04-17 02:26 | -13.95072 | 33.66953 | 11015 ft | 351 kts | 224° |
| 2026-04-17 02:26 | -13.96893 | 33.65150 | 11243 ft | 375 kts | 224° |
| 2026-04-17 02:26 | -13.98800 | 33.63260 | 11849 ft | 386 kts | 224° |
| 2026-04-17 02:26 | -14.00849 | 33.61475 | 12420 ft | 389 kts | 210° |
| 2026-04-17 02:27 | -14.03368 | 33.60425 | 13052 ft | 393 kts | 197° |
| 2026-04-17 02:27 | -14.06003 | 33.59578 | 13771 ft | 400 kts | 197° |
| 2026-04-17 02:27 | -14.08660 | 33.58705 | 14577 ft | 402 kts | 198° |
| 2026-04-17 02:27 | -14.11320 | 33.57813 | 15394 ft | 403 kts | 198° |
| 2026-04-17 02:28 | -14.13998 | 33.56901 | 16138 ft | 408 kts | 198° |
| 2026-04-17 02:28 | -14.16705 | 33.55967 | 16850 ft | 412 kts | 198° |
| 2026-04-17 02:28 | -14.19431 | 33.55019 | 17568 ft | 416 kts | 199° |
| 2026-04-17 02:28 | -14.22187 | 33.54056 | 18241 ft | 421 kts | 199° |
| 2026-04-17 02:29 | -14.24967 | 33.53083 | 18903 ft | 423 kts | 199° |
| 2026-04-17 02:29 | -14.27761 | 33.52104 | 19500 ft | 426 kts | 199° |
| 2026-04-17 02:29 | -14.30587 | 33.51113 | 20050 ft | 431 kts | 199° |
| 2026-04-17 02:29 | -14.33442 | 33.50111 | 20631 ft | 435 kts | 199° |
| 2026-04-17 02:30 | -14.36314 | 33.49104 | 21241 ft | 438 kts | 200° |
| 2026-04-17 02:30 | -14.39206 | 33.48089 | 21843 ft | 441 kts | 200° |
| 2026-04-17 02:30 | -14.42121 | 33.47066 | 22413 ft | 444 kts | 200° |
| 2026-04-17 02:30 | -14.45057 | 33.46035 | 22979 ft | 448 kts | 200° |
| 2026-04-17 02:31 | -14.48021 | 33.44995 | 23523 ft | 452 kts | 200° |
| 2026-04-17 02:31 | -14.51007 | 33.43947 | 23997 ft | 455 kts | 200° |
| 2026-04-17 02:31 | -14.54006 | 33.42893 | 24467 ft | 457 kts | 200° |
| 2026-04-17 02:31 | -14.57023 | 33.41834 | 24959 ft | 459 kts | 200° |
| 2026-04-17 02:32 | -14.60052 | 33.40770 | 25418 ft | 461 kts | 200° |
| 2026-04-17 02:32 | -14.63095 | 33.39700 | 25890 ft | 464 kts | 200° |
| 2026-04-17 02:32 | -14.66159 | 33.38623 | 26339 ft | 466 kts | 200° |
| 2026-04-17 02:32 | -14.69236 | 33.37541 | 26814 ft | 468 kts | 200° |
| 2026-04-17 02:33 | -14.72323 | 33.36455 | 27278 ft | 470 kts | 200° |
| 2026-04-17 02:33 | -14.75423 | 33.35363 | 27715 ft | 472 kts | 200° |
| 2026-04-17 02:33 | -14.78542 | 33.34265 | 28158 ft | 474 kts | 199° |
| 2026-04-17 02:33 | -14.81633 | 33.33176 | 28573 ft | 477 kts | 199° |
| 2026-04-17 02:34 | -14.84824 | 33.32052 | 28989 ft | 479 kts | 199° |
| 2026-04-17 02:34 | -14.87982 | 33.30940 | 29390 ft | 481 kts | 199° |
| 2026-04-17 02:34 | -14.91148 | 33.29824 | 29878 ft | 480 kts | 199° |
| 2026-04-17 02:34 | -14.94303 | 33.28711 | 30428 ft | 477 kts | 199° |
| 2026-04-17 02:35 | -14.97393 | 33.27621 | 30968 ft | 474 kts | 199° |
| 2026-04-17 02:35 | -15.00487 | 33.26482 | 31558 ft | 469 kts | 202° |
| 2026-04-17 02:35 | -15.06404 | 33.23707 | 32576 ft | 466 kts | 205° |
| 2026-04-17 02:36 | -15.08382 | 33.22747 | 32878 ft | 465 kts | 205° |
| 2026-04-17 02:36 | -15.12262 | 33.20867 | 33499 ft | 464 kts | 205° |
| 2026-04-17 02:36 | -15.15178 | 33.19461 | 33947 ft | 463 kts | 205° |
| 2026-04-17 02:36 | -15.18111 | 33.18053 | 33961 ft | 466 kts | 205° |
| 2026-04-17 02:37 | -15.23973 | 33.15248 | 33963 ft | 462 kts | 205° |
| 2026-04-17 02:37 | -15.28865 | 33.12908 | 33973 ft | 462 kts | 205° |
| 2026-04-17 02:38 | -15.34668 | 33.10131 | 33978 ft | 463 kts | 205° |
| 2026-04-17 02:38 | -15.40522 | 33.07326 | 33971 ft | 464 kts | 205° |
| 2026-04-17 02:39 | -15.46380 | 33.04518 | 33966 ft | 464 kts | 205° |
| 2026-04-17 02:39 | -15.52243 | 33.01705 | 33968 ft | 464 kts | 205° |
| 2026-04-17 02:40 | -15.58101 | 32.98893 | 33968 ft | 464 kts | 205° |
| 2026-04-17 02:40 | -15.63947 | 32.96048 | 33975 ft | 464 kts | 205° |
| 2026-04-17 02:41 | -15.69765 | 32.93179 | 33973 ft | 463 kts | 205° |
| 2026-04-17 02:41 | -15.75579 | 32.90313 | 33971 ft | 462 kts | 205° |
| 2026-04-17 02:42 | -15.81391 | 32.87451 | 33965 ft | 462 kts | 205° |
| 2026-04-17 02:42 | -15.87201 | 32.84590 | 33973 ft | 462 kts | 205° |
| 2026-04-17 02:43 | -15.93014 | 32.81727 | 33975 ft | 463 kts | 205° |
| 2026-04-17 02:43 | -15.98831 | 32.78859 | 33975 ft | 463 kts | 205° |
| 2026-04-17 02:44 | -16.04657 | 32.75985 | 33986 ft | 464 kts | 205° |
| 2026-04-17 02:44 | -16.10488 | 32.73106 | 33982 ft | 464 kts | 205° |
| 2026-04-17 02:45 | -16.16322 | 32.70225 | 34001 ft | 464 kts | 205° |
| 2026-04-17 02:45 | -16.22157 | 32.67340 | 33999 ft | 464 kts | 205° |
| 2026-04-17 02:46 | -16.27995 | 32.64452 | 34010 ft | 464 kts | 205° |
| 2026-04-17 02:46 | -16.33792 | 32.61583 | 34009 ft | 464 kts | 205° |
| 2026-04-17 02:47 | -16.39622 | 32.58695 | 34013 ft | 464 kts | 205° |
| 2026-04-17 02:47 | -16.45450 | 32.55806 | 34019 ft | 464 kts | 205° |
| 2026-04-17 02:48 | -16.51286 | 32.52915 | 34018 ft | 464 kts | 205° |
| 2026-04-17 02:48 | -16.57159 | 32.50120 | 34039 ft | 464 kts | 204° |
| 2026-04-17 02:49 | -16.63051 | 32.47364 | 34042 ft | 464 kts | 204° |
| 2026-04-17 02:49 | -16.68937 | 32.44595 | 34042 ft | 464 kts | 204° |
| 2026-04-17 02:50 | -16.74816 | 32.41816 | 34047 ft | 464 kts | 204° |
| 2026-04-17 02:50 | -16.80695 | 32.39031 | 34059 ft | 464 kts | 204° |
| 2026-04-17 02:51 | -16.86571 | 32.36247 | 34059 ft | 464 kts | 204° |
| 2026-04-17 02:51 | -16.92447 | 32.33462 | 34068 ft | 464 kts | 205° |
| 2026-04-17 02:52 | -16.98320 | 32.30676 | 34071 ft | 464 kts | 205° |
| 2026-04-17 02:52 | -17.04193 | 32.27888 | 34078 ft | 464 kts | 205° |
| 2026-04-17 02:53 | -17.10070 | 32.25096 | 34086 ft | 464 kts | 205° |
| 2026-04-17 02:53 | -17.15957 | 32.22318 | 34088 ft | 464 kts | 204° |
| 2026-04-17 02:54 | -17.21853 | 32.19555 | 34100 ft | 464 kts | 204° |
| 2026-04-17 02:54 | -17.27743 | 32.16792 | 34110 ft | 464 kts | 204° |
| 2026-04-17 02:55 | -17.33631 | 32.14024 | 34121 ft | 464 kts | 204° |
| 2026-04-17 02:55 | -17.39527 | 32.11249 | 34124 ft | 464 kts | 204° |
| 2026-04-17 02:56 | -17.45413 | 32.08476 | 34130 ft | 464 kts | 204° |
| 2026-04-17 02:56 | -17.51295 | 32.05704 | 34135 ft | 464 kts | 205° |
| 2026-04-17 02:57 | -17.57147 | 32.02943 | 34155 ft | 463 kts | 205° |
| 2026-04-17 02:57 | -17.63031 | 32.00166 | 34142 ft | 463 kts | 205° |
| 2026-04-17 02:58 | -17.68907 | 31.97390 | 34144 ft | 463 kts | 205° |
| 2026-04-17 02:58 | -17.74779 | 31.94614 | 34154 ft | 463 kts | 205° |
| 2026-04-17 02:59 | -17.80648 | 31.91837 | 34155 ft | 463 kts | 205° |
| 2026-04-17 02:59 | -17.86510 | 31.89062 | 34156 ft | 462 kts | 205° |
| 2026-04-17 03:00 | -17.92374 | 31.86284 | 34164 ft | 462 kts | 205° |
| 2026-04-17 03:00 | -17.98234 | 31.83506 | 34170 ft | 462 kts | 205° |
| 2026-04-17 03:01 | -18.04088 | 31.80728 | 34168 ft | 462 kts | 205° |
| 2026-04-17 03:01 | -18.09941 | 31.77949 | 34171 ft | 462 kts | 205° |
| 2026-04-17 03:02 | -18.15794 | 31.75167 | 34171 ft | 462 kts | 205° |
| 2026-04-17 03:02 | -18.21651 | 31.72383 | 34177 ft | 462 kts | 205° |
| 2026-04-17 03:03 | -18.27522 | 31.69614 | 34172 ft | 462 kts | 205° |
| 2026-04-17 03:03 | -18.33398 | 31.66855 | 34165 ft | 462 kts | 205° |
| 2026-04-17 03:04 | -18.39271 | 31.64093 | 34167 ft | 462 kts | 205° |
| 2026-04-17 03:04 | -18.45142 | 31.61327 | 34164 ft | 462 kts | 205° |
| 2026-04-17 03:05 | -18.51011 | 31.58559 | 34158 ft | 462 kts | 205° |
| 2026-04-17 03:05 | -18.56875 | 31.55791 | 34163 ft | 462 kts | 205° |
| 2026-04-17 03:06 | -18.62732 | 31.53024 | 34154 ft | 461 kts | 205° |
| 2026-04-17 03:06 | -18.68550 | 31.50274 | 34145 ft | 461 kts | 205° |
| 2026-04-17 03:07 | -18.74405 | 31.47504 | 34141 ft | 461 kts | 205° |
| 2026-04-17 03:07 | -18.80250 | 31.44736 | 34141 ft | 461 kts | 205° |
| 2026-04-17 03:08 | -18.86100 | 31.41964 | 34138 ft | 461 kts | 205° |
| 2026-04-17 03:08 | -18.91950 | 31.39190 | 34139 ft | 461 kts | 205° |
| 2026-04-17 03:09 | -18.97796 | 31.36415 | 34131 ft | 461 kts | 205° |
| 2026-04-17 03:09 | -19.03644 | 31.33637 | 34144 ft | 461 kts | 205° |
| 2026-04-17 03:10 | -19.09487 | 31.30860 | 34139 ft | 460 kts | 205° |
| 2026-04-17 03:10 | -19.15339 | 31.28103 | 34133 ft | 460 kts | 205° |
| 2026-04-17 03:11 | -19.21193 | 31.25359 | 34130 ft | 461 kts | 205° |
| 2026-04-17 03:11 | -19.27055 | 31.22606 | 34118 ft | 461 kts | 205° |
| 2026-04-17 03:12 | -19.32908 | 31.19852 | 34117 ft | 461 kts | 205° |
| 2026-04-17 03:12 | -19.38765 | 31.17093 | 34119 ft | 460 kts | 205° |
| 2026-04-17 03:13 | -19.44620 | 31.14332 | 34106 ft | 461 kts | 205° |
| 2026-04-17 03:13 | -19.50474 | 31.11571 | 34103 ft | 461 kts | 206° |
| 2026-04-17 03:14 | -19.56284 | 31.08827 | 34097 ft | 460 kts | 206° |
| 2026-04-17 03:14 | -19.62132 | 31.06063 | 34096 ft | 460 kts | 206° |
| 2026-04-17 03:15 | -19.67980 | 31.03297 | 34093 ft | 460 kts | 206° |
| 2026-04-17 03:15 | -19.73827 | 31.00529 | 34096 ft | 460 kts | 206° |
| 2026-04-17 03:16 | -19.79669 | 30.97762 | 34087 ft | 460 kts | 206° |
| 2026-04-17 03:16 | -19.85513 | 30.94991 | 34084 ft | 460 kts | 206° |
| 2026-04-17 03:17 | -19.91347 | 30.92223 | 34066 ft | 459 kts | 206° |
| 2026-04-17 03:17 | -19.97171 | 30.89456 | 34068 ft | 458 kts | 206° |
| 2026-04-17 03:18 | -20.02991 | 30.86690 | 34061 ft | 458 kts | 206° |
| 2026-04-17 03:18 | -20.08623 | 30.83585 | 34062 ft | 455 kts | 213° |
| 2026-04-17 03:19 | -20.14009 | 30.80042 | 34068 ft | 455 kts | 214° |
| 2026-04-17 03:19 | -20.19389 | 30.76501 | 34058 ft | 455 kts | 213° |
| 2026-04-17 03:20 | -20.24777 | 30.72974 | 34048 ft | 455 kts | 213° |
| 2026-04-17 03:20 | -20.30163 | 30.69456 | 34049 ft | 454 kts | 213° |
| 2026-04-17 03:21 | -20.35546 | 30.65940 | 34048 ft | 454 kts | 213° |
| 2026-04-17 03:21 | -20.40924 | 30.62424 | 34041 ft | 453 kts | 213° |
| 2026-04-17 03:22 | -20.46295 | 30.58909 | 34046 ft | 453 kts | 214° |
| 2026-04-17 03:22 | -20.51665 | 30.55392 | 34044 ft | 453 kts | 214° |
| 2026-04-17 03:23 | -20.57031 | 30.51874 | 34032 ft | 452 kts | 213° |
| 2026-04-17 03:23 | -20.62388 | 30.48359 | 34033 ft | 452 kts | 214° |
| 2026-04-17 03:24 | -20.66841 | 30.45435 | 34022 ft | 452 kts | 214° |
| 2026-04-17 03:24 | -20.72189 | 30.41921 | 34024 ft | 451 kts | 214° |
| 2026-04-17 03:25 | -20.78402 | 30.37834 | 34024 ft | 451 kts | 214° |
| 2026-04-17 03:25 | -20.82886 | 30.34883 | 34024 ft | 451 kts | 214° |
| 2026-04-17 03:26 | -20.88230 | 30.31363 | 34019 ft | 451 kts | 214° |
| 2026-04-17 03:26 | -20.93577 | 30.27837 | 34013 ft | 451 kts | 214° |
| 2026-04-17 03:27 | -20.98924 | 30.24308 | 34013 ft | 452 kts | 214° |
| 2026-04-17 03:27 | -21.04271 | 30.20777 | 34015 ft | 452 kts | 214° |
| 2026-04-17 03:28 | -21.09583 | 30.17265 | 34011 ft | 452 kts | 214° |
| 2026-04-17 03:28 | -21.14927 | 30.13730 | 34023 ft | 452 kts | 214° |
| 2026-04-17 03:29 | -21.20272 | 30.10191 | 33994 ft | 452 kts | 214° |
| 2026-04-17 03:29 | -21.25615 | 30.06651 | 34015 ft | 452 kts | 214° |
| 2026-04-17 03:30 | -21.30960 | 30.03104 | 34012 ft | 452 kts | 214° |
| 2026-04-17 03:30 | -21.36301 | 29.99559 | 34012 ft | 452 kts | 214° |
| 2026-04-17 03:31 | -21.41646 | 29.96007 | 34010 ft | 452 kts | 214° |
| 2026-04-17 03:31 | -21.46990 | 29.92454 | 34019 ft | 452 kts | 215° |
| 2026-04-17 03:32 | -21.52331 | 29.88898 | 34019 ft | 451 kts | 215° |
| 2026-04-17 03:32 | -21.57664 | 29.85345 | 34003 ft | 451 kts | 215° |
| 2026-04-17 03:33 | -21.63000 | 29.81787 | 34007 ft | 451 kts | 215° |
| 2026-04-17 03:33 | -21.68335 | 29.78227 | 34018 ft | 451 kts | 215° |
| 2026-04-17 03:34 | -21.73663 | 29.74668 | 34000 ft | 451 kts | 215° |
| 2026-04-17 03:34 | -21.78997 | 29.71102 | 34023 ft | 451 kts | 215° |
| 2026-04-17 03:35 | -21.84329 | 29.67534 | 33998 ft | 451 kts | 215° |
| 2026-04-17 03:35 | -21.89657 | 29.63965 | 34005 ft | 451 kts | 215° |
| 2026-04-17 03:36 | -21.97612 | 29.58631 | 34003 ft | 451 kts | 215° |
| 2026-04-17 03:37 | -22.02955 | 29.55045 | 34008 ft | 451 kts | 216° |
| 2026-04-17 03:37 | -22.08257 | 29.51482 | 34007 ft | 451 kts | 216° |
| 2026-04-17 03:38 | -22.13588 | 29.47896 | 34014 ft | 451 kts | 216° |
| 2026-04-17 03:38 | -22.18944 | 29.44351 | 34015 ft | 453 kts | 214° |
| 2026-04-17 03:39 | -22.24691 | 29.41486 | 34019 ft | 459 kts | 204° |
| 2026-04-17 03:39 | -22.30882 | 29.39636 | 34010 ft | 465 kts | 196° |
| 2026-04-17 03:40 | -22.36756 | 29.38453 | 34022 ft | 466 kts | 195° |
| 2026-04-17 03:40 | -22.43132 | 29.37204 | 34011 ft | 466 kts | 195° |
| 2026-04-17 03:41 | -22.49503 | 29.35930 | 34017 ft | 465 kts | 196° |
| 2026-04-17 03:41 | -22.55863 | 29.34637 | 34016 ft | 465 kts | 196° |
| 2026-04-17 03:42 | -22.62224 | 29.33337 | 34018 ft | 465 kts | 196° |
| 2026-04-17 03:42 | -22.68580 | 29.32037 | 34017 ft | 465 kts | 196° |
| 2026-04-17 03:43 | -22.74931 | 29.30738 | 34027 ft | 465 kts | 196° |
| 2026-04-17 03:43 | -22.81286 | 29.29436 | 34027 ft | 465 kts | 196° |
| 2026-04-17 03:44 | -22.87640 | 29.28134 | 34033 ft | 465 kts | 196° |
| 2026-04-17 03:44 | -22.93998 | 29.26829 | 34031 ft | 465 kts | 196° |
| 2026-04-17 03:45 | -23.00355 | 29.25524 | 34037 ft | 465 kts | 196° |
| 2026-04-17 03:45 | -23.06720 | 29.24216 | 34043 ft | 466 kts | 197° |
| 2026-04-17 03:46 | -23.13098 | 29.22904 | 34044 ft | 467 kts | 197° |
| 2026-04-17 03:46 | -23.19488 | 29.21588 | 34046 ft | 468 kts | 197° |
| 2026-04-17 03:47 | -23.25884 | 29.20269 | 34045 ft | 468 kts | 197° |
| 2026-04-17 03:47 | -23.32282 | 29.18950 | 34062 ft | 468 kts | 197° |
| 2026-04-17 03:48 | -23.38690 | 29.17626 | 34046 ft | 469 kts | 197° |
| 2026-04-17 03:48 | -23.45058 | 29.16310 | 34049 ft | 469 kts | 197° |
| 2026-04-17 03:49 | -23.51459 | 29.14985 | 34046 ft | 468 kts | 197° |
| 2026-04-17 03:49 | -23.57858 | 29.13660 | 34056 ft | 468 kts | 197° |
| 2026-04-17 03:50 | -23.64257 | 29.12333 | 34061 ft | 468 kts | 197° |
| 2026-04-17 03:50 | -23.70656 | 29.11004 | 34063 ft | 468 kts | 197° |
| 2026-04-17 03:51 | -23.77062 | 29.09673 | 34064 ft | 468 kts | 197° |
| 2026-04-17 03:51 | -23.83462 | 29.08342 | 34062 ft | 468 kts | 197° |
| 2026-04-17 03:52 | -23.89861 | 29.07010 | 34073 ft | 468 kts | 198° |
| 2026-04-17 03:52 | -23.96262 | 29.05676 | 34064 ft | 468 kts | 198° |
| 2026-04-17 03:53 | -24.02659 | 29.04342 | 34055 ft | 468 kts | 198° |
| 2026-04-17 03:53 | -24.09038 | 29.03009 | 34070 ft | 467 kts | 198° |
| 2026-04-17 03:54 | -24.15428 | 29.01681 | 34077 ft | 468 kts | 198° |
| 2026-04-17 03:54 | -24.21787 | 29.00360 | 34067 ft | 468 kts | 198° |
| 2026-04-17 03:55 | -24.28194 | 28.99027 | 34083 ft | 469 kts | 198° |
| 2026-04-17 03:55 | -24.34603 | 28.97692 | 34071 ft | 469 kts | 198° |
| 2026-04-17 03:56 | -24.41013 | 28.96355 | 34079 ft | 469 kts | 198° |
| 2026-04-17 03:56 | -24.47424 | 28.95017 | 34100 ft | 469 kts | 198° |
| 2026-04-17 03:57 | -24.53837 | 28.93676 | 34086 ft | 469 kts | 198° |
| 2026-04-17 03:57 | -24.60252 | 28.92333 | 34085 ft | 469 kts | 198° |
| 2026-04-17 03:58 | -24.66670 | 28.90989 | 34088 ft | 469 kts | 198° |
| 2026-04-17 03:58 | -24.73087 | 28.89644 | 34093 ft | 467 kts | 198° |
| 2026-04-17 03:59 | -24.79348 | 28.88338 | 34077 ft | 449 kts | 199° |
| 2026-04-17 03:59 | -24.82383 | 28.87704 | 34036 ft | 438 kts | 199° |
| 2026-04-17 03:59 | -24.85352 | 28.87079 | 33691 ft | 432 kts | 199° |
| 2026-04-17 03:59 | -24.88288 | 28.86457 | 33270 ft | 427 kts | 199° |
| 2026-04-17 04:00 | -24.91196 | 28.85841 | 32817 ft | 425 kts | 199° |
| 2026-04-17 04:00 | -24.94107 | 28.85225 | 32367 ft | 428 kts | 198° |
| 2026-04-17 04:00 | -24.97066 | 28.84596 | 31912 ft | 439 kts | 198° |
| 2026-04-17 04:00 | -25.00103 | 28.83949 | 31419 ft | 447 kts | 198° |
| 2026-04-17 04:01 | -25.03159 | 28.83305 | 30911 ft | 447 kts | 197° |
| 2026-04-17 04:01 | -25.06204 | 28.82667 | 30431 ft | 445 kts | 197° |
| 2026-04-17 04:01 | -25.09236 | 28.82032 | 29859 ft | 443 kts | 197° |
| 2026-04-17 04:01 | -25.12253 | 28.81398 | 29319 ft | 440 kts | 197° |
| 2026-04-17 04:02 | -25.15247 | 28.80767 | 28801 ft | 437 kts | 197° |
| 2026-04-17 04:02 | -25.18218 | 28.80140 | 28302 ft | 433 kts | 197° |
| 2026-04-17 04:02 | -25.21170 | 28.79515 | 27813 ft | 430 kts | 196° |
| 2026-04-17 04:02 | -25.24100 | 28.78895 | 27322 ft | 427 kts | 196° |
| 2026-04-17 04:03 | -25.26967 | 28.78290 | 26818 ft | 409 kts | 196° |
| 2026-04-17 04:03 | -25.29730 | 28.77707 | 26406 ft | 403 kts | 196° |
| 2026-04-17 04:03 | -25.32477 | 28.77122 | 25965 ft | 401 kts | 196° |
| 2026-04-17 04:03 | -25.35217 | 28.76536 | 25525 ft | 401 kts | 195° |
| 2026-04-17 04:04 | -25.37955 | 28.75952 | 25065 ft | 401 kts | 195° |
| 2026-04-17 04:04 | -25.40693 | 28.75370 | 24625 ft | 401 kts | 195° |
| 2026-04-17 04:04 | -25.43391 | 28.74797 | 24183 ft | 401 kts | 195° |
| 2026-04-17 04:04 | -25.46048 | 28.74145 | 23697 ft | 380 kts | 203° |
| 2026-04-17 04:05 | -25.48358 | 28.72876 | 23243 ft | 366 kts | 215° |
| 2026-04-17 04:05 | -25.50558 | 28.71440 | 22809 ft | 368 kts | 216° |
| 2026-04-17 04:05 | -25.52732 | 28.69886 | 22373 ft | 376 kts | 218° |
| 2026-04-17 04:05 | -25.54924 | 28.68238 | 21844 ft | 382 kts | 218° |
| 2026-04-17 04:06 | -25.57094 | 28.66596 | 21316 ft | 377 kts | 218° |
| 2026-04-17 04:06 | -25.59260 | 28.64961 | 20842 ft | 372 kts | 218° |
| 2026-04-17 04:06 | -25.61397 | 28.63357 | 20435 ft | 374 kts | 217° |
| 2026-04-17 04:06 | -25.63573 | 28.61727 | 19992 ft | 380 kts | 217° |
| 2026-04-17 04:07 | -25.65765 | 28.60091 | 19536 ft | 380 kts | 217° |
| 2026-04-17 04:07 | -25.67957 | 28.58459 | 19078 ft | 379 kts | 217° |
| 2026-04-17 04:07 | -25.70139 | 28.56834 | 18626 ft | 378 kts | 217° |
| 2026-04-17 04:07 | -25.72319 | 28.55210 | 18131 ft | 376 kts | 217° |
| 2026-04-17 04:08 | -25.74485 | 28.53595 | 17672 ft | 374 kts | 217° |
| 2026-04-17 04:08 | -25.76602 | 28.52019 | 17201 ft | 359 kts | 217° |
| 2026-04-17 04:08 | -25.78669 | 28.50478 | 16801 ft | 356 kts | 217° |
| 2026-04-17 04:08 | -25.80797 | 28.49124 | 16364 ft | 352 kts | 202° |
| 2026-04-17 04:09 | -25.83164 | 28.48506 | 15977 ft | 347 kts | 193° |
| 2026-04-17 04:09 | -25.85532 | 28.48010 | 15593 ft | 345 kts | 194° |
| 2026-04-17 04:09 | -25.87879 | 28.47495 | 15198 ft | 343 kts | 194° |
| 2026-04-17 04:09 | -25.90214 | 28.46970 | 14812 ft | 341 kts | 194° |
| 2026-04-17 04:10 | -25.92534 | 28.46440 | 14420 ft | 340 kts | 194° |
| 2026-04-17 04:10 | -25.94842 | 28.45907 | 14013 ft | 339 kts | 194° |
| 2026-04-17 04:10 | -25.97100 | 28.45383 | 13578 ft | 327 kts | 194° |
| 2026-04-17 04:10 | -25.99330 | 28.44863 | 13198 ft | 329 kts | 194° |
| 2026-04-17 04:11 | -26.01586 | 28.44335 | 12816 ft | 335 kts | 194° |
| 2026-04-17 04:11 | -26.03893 | 28.43794 | 12427 ft | 342 kts | 194° |
| 2026-04-17 04:11 | -26.06226 | 28.43247 | 12020 ft | 343 kts | 194° |
| 2026-04-17 04:11 | -26.08555 | 28.42703 | 11611 ft | 341 kts | 194° |
| 2026-04-17 04:12 | -26.10866 | 28.42163 | 11221 ft | 338 kts | 194° |
| 2026-04-17 04:12 | -26.13123 | 28.41634 | 10837 ft | 335 kts | 194° |
| 2026-04-17 04:12 | -26.14658 | 28.41275 | 10600 ft | 332 kts | 194° |
| 2026-04-17 04:12 | -26.16878 | 28.40755 | 10464 ft | 320 kts | 194° |
| 2026-04-17 04:13 | -26.19706 | 28.40093 | 10258 ft | 307 kts | 194° |
| 2026-04-17 04:13 | -26.21756 | 28.39606 | 10138 ft | 296 kts | 194° |
| 2026-04-17 04:13 | -26.23724 | 28.39130 | 10069 ft | 283 kts | 194° |
| 2026-04-17 04:13 | -26.25000 | 28.38818 | 10013 ft | 274 kts | 194° |
| 2026-04-17 04:14 | -26.26825 | 28.38366 | 9955 ft | 268 kts | 195° |
| 2026-04-17 04:14 | -26.28693 | 28.37903 | 9840 ft | 283 kts | 194° |
| 2026-04-17 04:14 | -26.30632 | 28.37437 | 9865 ft | 288 kts | 194° |
| 2026-04-17 04:14 | -26.32525 | 28.36775 | 9850 ft | 284 kts | 214° |
| 2026-04-17 04:15 | -26.33872 | 28.35223 | 9842 ft | 281 kts | 243° |
| 2026-04-17 04:15 | -26.34475 | 28.33136 | 9439 ft | 284 kts | 269° |
| 2026-04-17 04:15 | -26.34205 | 28.31060 | 9086 ft | 262 kts | 294° |
| 2026-04-17 04:15 | -26.33396 | 28.29304 | 8799 ft | 251 kts | 300° |
| 2026-04-17 04:16 | -26.32594 | 28.27625 | 8588 ft | 241 kts | 300° |
| 2026-04-17 04:16 | -26.31826 | 28.26007 | 8375 ft | 230 kts | 300° |
| 2026-04-17 04:16 | -26.31101 | 28.24474 | 8233 ft | 220 kts | 300° |
| 2026-04-17 04:16 | -26.30383 | 28.22986 | 8091 ft | 215 kts | 305° |
| 2026-04-17 04:17 | -26.29284 | 28.21928 | 7970 ft | 208 kts | 339° |
| 2026-04-17 04:17 | -26.27925 | 28.21728 | 7809 ft | 196 kts | 359° |
| 2026-04-17 04:17 | -26.26605 | 28.21862 | 7569 ft | 185 kts | 7° |
| 2026-04-17 04:17 | -26.25358 | 28.22091 | 7344 ft | 181 kts | 10° |
| 2026-04-17 04:18 | -26.24136 | 28.22426 | 7127 ft | 181 kts | 14° |
| 2026-04-17 04:18 | -26.22920 | 28.22804 | 6910 ft | 182 kts | 13° |
| 2026-04-17 04:18 | -26.21720 | 28.23178 | 6688 ft | 173 kts | 14° |
| 2026-04-17 04:18 | -26.20609 | 28.23525 | 6431 ft | 159 kts | 14° |
| 2026-04-17 04:19 | -26.19565 | 28.23848 | 6236 ft | 156 kts | 14° |
| 2026-04-17 04:19 | -26.18516 | 28.24174 | 6000 ft | 156 kts | 15° |
| 2026-04-17 04:19 | -26.17470 | 28.24504 | 5760 ft | 155 kts | 14° |
| 2026-04-17 04:19 | -26.16446 | 28.24824 | 5570 ft | 151 kts | 14° |
| 2026-04-17 04:20 | -26.15481 | 28.25121 | 5521 ft | 123 kts | 17° |
| 2026-04-17 04:20 | -26.14880 | 28.25307 | 5513 ft | 57 kts | 15° |
| 2026-04-17 04:20 | -26.14588 | 28.25398 | 5510 ft | 41 kts | 16° |
| 2026-04-17 04:20 | -26.14373 | 28.25464 | 5513 ft | 30 kts | 15° |
| 2026-04-17 04:21 | -26.14182 | 28.25472 | 5516 ft | 19 kts | 351° |
| 2026-04-17 04:21 | -26.14068 | 28.25452 | 5515 ft | 11 kts | 350° |
| 2026-04-17 04:21 | -26.14000 | 28.25415 | 5515 ft | 12 kts | 296° |
| 2026-04-17 04:21 | -26.14045 | 28.25356 | 5516 ft | 12 kts | 192° |
| 2026-04-17 04:22 | -26.14126 | 28.25332 | 5515 ft | 13 kts | 194° |
| 2026-04-17 04:22 | -26.14219 | 28.25304 | 5514 ft | 14 kts | 196° |
| 2026-04-17 04:22 | -26.14317 | 28.25274 | 5514 ft | 15 kts | 194° |
| 2026-04-17 04:22 | -26.14412 | 28.25234 | 5515 ft | 15 kts | 221° |
| 2026-04-17 04:23 | -26.14401 | 28.25133 | 5519 ft | 15 kts | 309° |
| 2026-04-17 04:23 | -26.14328 | 28.25053 | 5535 ft | 15 kts | 316° |
| 2026-04-17 04:23 | -26.14254 | 28.24973 | 5536 ft | 15 kts | 316° |
| 2026-04-17 04:23 | -26.14180 | 28.24893 | 5536 ft | 15 kts | 316° |
| 2026-04-17 04:24 | -26.14106 | 28.24813 | 5536 ft | 15 kts | 316° |
| 2026-04-17 04:24 | -26.14033 | 28.24733 | 5536 ft | 15 kts | 316° |
| 2026-04-17 04:24 | -26.13959 | 28.24654 | 5536 ft | 15 kts | 315° |
| 2026-04-17 04:24 | -26.13886 | 28.24573 | 5536 ft | 15 kts | 316° |
| 2026-04-17 04:25 | -26.13812 | 28.24493 | 5545 ft | 15 kts | 316° |
| 2026-04-17 04:25 | -26.13738 | 28.24414 | 5548 ft | 15 kts | 315° |
| 2026-04-17 04:25 | -26.13664 | 28.24333 | 5549 ft | 15 kts | 316° |
| 2026-04-17 04:25 | -26.13590 | 28.24253 | 5547 ft | 15 kts | 315° |
| 2026-04-17 04:26 | -26.13516 | 28.24173 | 5547 ft | 15 kts | 316° |
| 2026-04-17 04:26 | -26.13442 | 28.24093 | 5552 ft | 15 kts | 315° |
| 2026-04-17 04:26 | -26.13368 | 28.24012 | 5558 ft | 15 kts | 316° |
| 2026-04-17 04:26 | -26.13291 | 28.23928 | 5555 ft | 17 kts | 315° |
| 2026-04-17 04:27 | -26.13204 | 28.23834 | 5555 ft | 17 kts | 316° |
| 2026-04-17 04:27 | -26.13123 | 28.23746 | 5554 ft | 13 kts | 315° |
| 2026-04-17 04:27 | -26.13037 | 28.23732 | 5553 ft | 14 kts | 14° |
| 2026-04-17 04:27 | -26.12946 | 28.23759 | 5553 ft | 14 kts | 15° |
| 2026-04-17 04:28 | -26.12855 | 28.23786 | 5553 ft | 14 kts | 15° |
| 2026-04-17 04:28 | -26.12764 | 28.23814 | 5550 ft | 14 kts | 15° |
| 2026-04-17 04:28 | -26.12673 | 28.23841 | 5554 ft | 14 kts | 15° |
| 2026-04-17 04:28 | -26.12576 | 28.23873 | 5550 ft | 15 kts | 17° |
| 2026-04-17 04:29 | -26.12467 | 28.23907 | 5547 ft | 17 kts | 13° |
| 2026-04-17 04:29 | -26.12353 | 28.23942 | 5546 ft | 17 kts | 16° |
| 2026-04-17 04:29 | -26.12235 | 28.23979 | 5543 ft | 18 kts | 15° |
| 2026-04-17 04:29 | -26.12135 | 28.24010 | 5544 ft | 13 kts | 15° |
| 2026-04-17 04:30 | -26.12046 | 28.24037 | 5538 ft | 14 kts | 15° |
| 2026-04-17 04:30 | -26.11947 | 28.24068 | 5535 ft | 16 kts | 15° |
| 2026-04-17 04:30 | -26.11832 | 28.24104 | 5531 ft | 18 kts | 15° |
| 2026-04-17 04:30 | -26.11743 | 28.24082 | 5529 ft | 14 kts | 311° |
| 2026-04-17 04:31 | -26.11691 | 28.24066 | 5529 ft | 0 kts | 358° |
| 2026-04-17 04:31 | -26.11690 | 28.24066 | 5529 ft | 0 kts | 358° |
| 2026-04-17 04:31 | -26.11663 | 28.24060 | 5529 ft | 7 kts | 343° |
| 2026-04-17 04:32 | -26.11614 | 28.24032 | 5528 ft | 6 kts | 331° |
| 2026-04-17 04:32 | -26.11589 | 28.24017 | 5527 ft | 1 kts | 330° |
| 2026-04-17 04:32 | -26.11584 | 28.24014 | 5527 ft | 0 kts | 330° |
| 2026-04-17 04:33 | -26.11556 | 28.24014 | 5527 ft | 0 kts | 284° |